Time;durP1;ratioP1;P1;durP2;ratioP2;P2;SDS_P1;SDS_P2;PMS_P1;PMS_P2;Temp;Humidity;BMP_temperature;BMP_pressure;BME280_temperature;BME280_humidity;BME280_pressure;Samples;Min_cycle;Max_cycle;Signal;HPM_P1;HPM_P2
2022/03/24 00:02:14;;;;;;;;;46.75;42.25;;;;;;;;4949033;28;11560;-75
2022/03/24 00:04:41;;;;;;;;;46.75;42.00;;;;;;;;4946606;28;11687;-77
2022/03/24 00:07:09;;;;;;;;;50.25;42.25;;;;;;;;4979907;28;11562;-75
2022/03/24 00:09:36;;;;;;;;;42.25;40.25;;;;;;;;4988906;28;12593;-75
2022/03/24 00:12:05;;;;;;;;;50.75;39.00;;;;;;;;4950635;28;11600;-76
2022/03/24 00:14:32;;;;;;;;;46.50;41.50;;;;;;;;4953139;28;11718;-76
2022/03/24 00:17:01;;;;;;;;;41.00;36.00;;;;;;;;4956042;28;12425;-76
2022/03/24 00:19:28;;;;;;;;;38.50;34.75;;;;;;;;4952767;28;11707;-76
2022/03/24 00:21:56;;;;;;;;;43.50;39.00;;;;;;;;4943143;28;11635;-76
2022/03/24 00:24:23;;;;;;;;;43.25;38.50;;;;;;;;4943002;28;11635;-76
2022/03/24 00:26:50;;;;;;;;;40.25;38.75;;;;;;;;4939117;28;11854;-76
2022/03/24 00:29:18;;;;;;;;;43.00;40.00;;;;;;;;4947625;28;11601;-76
2022/03/24 00:31:46;;;;;;;;;45.00;40.75;;;;;;;;4950230;28;11681;-76
2022/03/24 00:34:15;;;;;;;;;48.00;39.25;;;;;;;;4957727;28;11701;-76
2022/03/24 00:36:42;;;;;;;;;42.75;34.50;;;;;;;;4941205;28;11693;-74
2022/03/24 00:39:09;;;;;;;;;55.25;44.00;;;;;;;;4941616;28;11723;-76
2022/03/24 00:41:37;;;;;;;;;41.75;39.00;;;;;;;;4943772;28;11687;-76
2022/03/24 00:44:04;;;;;;;;;47.50;41.75;;;;;;;;4950250;28;11608;-76
2022/03/24 00:46:32;;;;;;;;;31.75;28.50;;;;;;;;4952926;28;11607;-76
2022/03/24 00:48:59;;;;;;;;;47.25;42.50;;;;;;;;4950431;28;11648;-76
2022/03/24 00:51:28;;;;;;;;;46.50;39.75;;;;;;;;4938230;28;11693;-76
2022/03/24 00:53:55;;;;;;;;;46.50;43.00;;;;;;;;4943710;28;11644;-76
2022/03/24 00:56:23;;;;;;;;;35.25;34.50;;;;;;;;4953157;28;11697;-76
2022/03/24 00:58:51;;;;;;;;;43.75;39.75;;;;;;;;4944119;28;11576;-76
2022/03/24 01:01:20;;;;;;;;;32.75;30.25;;;;;;;;4948129;28;11574;-76
2022/03/24 01:03:49;;;;;;;;;42.00;38.75;;;;;;;;4951502;28;11654;-76
2022/03/24 01:06:17;;;;;;;;;39.50;37.25;;;;;;;;4945628;28;11653;-76
2022/03/24 01:08:46;;;;;;;;;41.00;33.50;;;;;;;;4951554;28;12468;-76
2022/03/24 01:11:14;;;;;;;;;42.50;38.50;;;;;;;;4951766;28;11602;-75
2022/03/24 01:13:41;;;;;;;;;46.50;42.00;;;;;;;;4934919;28;11689;-76
2022/03/24 01:16:09;;;;;;;;;38.25;35.50;;;;;;;;4954992;28;11592;-76
2022/03/24 01:18:38;;;;;;;;;32.50;29.75;;;;;;;;4943001;28;11623;-76
2022/03/24 01:21:06;;;;;;;;;40.00;37.75;;;;;;;;4944480;28;12418;-76
2022/03/24 01:23:33;;;;;;;;;45.75;37.50;;;;;;;;4950699;28;11644;-76
2022/03/24 01:26:04;;;;;;;;;45.00;34.75;;;;;;;;4972215;28;11590;-76
2022/03/24 01:28:31;;;;;;;;;37.25;37.00;;;;;;;;4944303;28;11598;-76
2022/03/24 01:30:59;;;;;;;;;40.50;37.50;;;;;;;;4949851;28;12437;-75
2022/03/24 01:33:26;;;;;;;;;46.25;37.50;;;;;;;;4939968;28;11610;-76
2022/03/24 01:35:53;;;;;;;;;38.00;37.00;;;;;;;;4941204;28;11741;-76
2022/03/24 01:38:23;;;;;;;;;43.50;38.75;;;;;;;;4943172;28;11614;-77
2022/03/24 01:40:50;;;;;;;;;38.00;34.00;;;;;;;;4952053;28;11582;-76
2022/03/24 01:43:19;;;;;;;;;43.50;32.00;;;;;;;;4939173;28;11696;-77
2022/03/24 01:45:48;;;;;;;;;41.25;38.50;;;;;;;;4947445;28;11588;-77
2022/03/24 01:48:15;;;;;;;;;34.25;32.75;;;;;;;;4948876;28;11775;-76
2022/03/24 01:50:43;;;;;;;;;34.00;32.75;;;;;;;;4947897;28;11568;-77
2022/03/24 01:53:10;;;;;;;;;35.50;35.50;;;;;;;;4940238;28;11598;-77
2022/03/24 01:55:39;;;;;;;;;40.00;36.50;;;;;;;;4951872;28;11616;-76
2022/03/24 01:58:07;;;;;;;;;40.00;33.67;;;;;;;;4941621;28;11691;-77
2022/03/24 02:00:36;;;;;;;;;40.33;37.67;;;;;;;;4941948;28;11795;-77
2022/03/24 02:03:05;;;;;;;;;34.00;30.00;;;;;;;;4939900;28;11724;-77
2022/03/24 02:05:33;;;;;;;;;37.00;34.33;;;;;;;;4942119;28;11592;-76
2022/03/24 02:08:03;;;;;;;;;37.00;33.00;;;;;;;;4940648;28;11704;-75
2022/03/24 02:10:31;;;;;;;;;30.00;30.00;;;;;;;;4993505;28;11627;-75
2022/03/24 02:12:59;;;;;;;;;40.33;37.00;;;;;;;;4933313;28;11589;-76
2022/03/24 02:15:27;;;;;;;;;29.33;29.33;;;;;;;;4943121;28;11599;-76
2022/03/24 02:17:56;;;;;;;;;43.00;38.00;;;;;;;;4941891;28;11609;-77
2022/03/24 02:20:25;;;;;;;;;23.67;23.67;;;;;;;;4939871;28;11607;-78
2022/03/24 02:22:54;;;;;;;;;32.33;29.00;;;;;;;;4940077;28;11673;-77
2022/03/24 02:25:22;;;;;;;;;38.00;33.00;;;;;;;;4938997;28;11778;-77
2022/03/24 02:27:52;;;;;;;;;39.33;39.33;;;;;;;;4922935;28;11644;-76
2022/03/24 02:30:20;;;;;;;;;42.00;37.00;;;;;;;;4952516;28;11542;-76
2022/03/24 02:32:47;;;;;;;;;45.00;40.00;;;;;;;;4939272;28;11595;-76
2022/03/24 02:35:15;;;;;;;;;30.50;27.25;;;;;;;;4938950;28;11619;-77
2022/03/24 02:37:43;;;;;;;;;32.33;30.00;;;;;;;;4940054;28;11579;-76
2022/03/24 02:40:13;;;;;;;;;32.75;26.25;;;;;;;;4939005;28;11600;-76
2022/03/24 02:42:40;;;;;;;;;26.67;26.67;;;;;;;;4939297;28;11637;-76
2022/03/24 02:45:10;;;;;;;;;33.67;33.67;;;;;;;;4941093;28;12432;-76
2022/03/24 02:47:37;;;;;;;;;29.33;25.67;;;;;;;;4949826;28;11670;-76
2022/03/24 02:50:05;;;;;;;;;28.00;28.00;;;;;;;;4952692;28;11616;-76
2022/03/24 02:52:33;;;;;;;;;41.67;34.67;;;;;;;;4945102;28;11666;-76
2022/03/24 02:55:00;;;;;;;;;31.00;30.00;;;;;;;;4947364;28;11609;-75
2022/03/24 02:57:30;;;;;;;;;39.00;30.67;;;;;;;;4946314;28;11792;-76
2022/03/24 02:59:57;;;;;;;;;28.00;26.00;;;;;;;;4953578;28;11586;-77
2022/03/24 03:02:25;;;;;;;;;35.67;31.33;;;;;;;;4955381;28;11519;-77
2022/03/24 03:04:53;;;;;;;;;31.33;28.00;;;;;;;;4949230;28;11664;-77
2022/03/24 03:07:21;;;;;;;;;33.67;29.00;;;;;;;;4972879;28;11563;-75
2022/03/24 03:09:49;;;;;;;;;22.33;22.33;;;;;;;;4946891;28;11600;-76
2022/03/24 03:12:17;;;;;;;;;25.33;22.00;;;;;;;;4950429;28;12129;-76
2022/03/24 03:14:47;;;;;;;;;29.67;29.67;;;;;;;;4938030;28;11563;-75
2022/03/24 03:17:16;;;;;;;;;35.67;31.67;;;;;;;;4940154;28;12698;-75
2022/03/24 03:19:45;;;;;;;;;30.33;29.00;;;;;;;;4940261;28;11592;-76
2022/03/24 03:22:13;;;;;;;;;39.67;33.67;;;;;;;;4940196;28;11650;-76
2022/03/24 03:24:40;;;;;;;;;33.33;28.67;;;;;;;;4943608;28;11582;-76
2022/03/24 03:27:09;;;;;;;;;33.33;29.00;;;;;;;;4948721;28;8869;-76
2022/03/24 03:29:36;;;;;;;;;37.33;35.67;;;;;;;;4944068;28;11711;-75
2022/03/24 03:32:07;;;;;;;;;36.33;32.00;;;;;;;;4933758;28;8853;-75
2022/03/24 03:34:34;;;;;;;;;29.67;26.00;;;;;;;;4942280;28;8911;-76
2022/03/24 03:37:01;;;;;;;;;33.00;26.33;;;;;;;;4943379;28;8888;-75
2022/03/24 03:39:29;;;;;;;;;27.33;27.33;;;;;;;;4942442;28;8986;-76
2022/03/24 03:41:56;;;;;;;;;34.33;30.67;;;;;;;;4930694;28;11579;-76
2022/03/24 03:44:25;;;;;;;;;27.00;24.67;;;;;;;;4941267;28;8990;-76
2022/03/24 03:46:52;;;;;;;;;30.00;28.33;;;;;;;;4942564;28;8904;-77
2022/03/24 03:49:22;;;;;;;;;36.33;30.00;;;;;;;;4940812;28;8872;-77
2022/03/24 03:51:50;;;;;;;;;26.67;26.67;;;;;;;;4939148;28;8992;-77
2022/03/24 03:54:19;;;;;;;;;45.67;37.00;;;;;;;;4946184;28;8899;-77
2022/03/24 03:56:46;;;;;;;;;44.33;40.00;;;;;;;;4950060;28;8888;-75
2022/03/24 03:59:14;;;;;;;;;36.67;33.67;;;;;;;;4939792;28;8969;-76
2022/03/24 04:01:41;;;;;;;;;40.33;36.67;;;;;;;;4939011;28;8825;-76
2022/03/24 04:04:12;;;;;;;;;23.00;21.00;;;;;;;;4949162;28;8893;-77
2022/03/24 04:06:41;;;;;;;;;36.00;30.00;;;;;;;;4947123;28;8985;-75
2022/03/24 04:09:09;;;;;;;;;33.67;30.67;;;;;;;;4938526;28;8942;-76
2022/03/24 04:11:36;;;;;;;;;31.33;28.67;;;;;;;;4944856;28;8905;-75
2022/03/24 04:14:04;;;;;;;;;39.67;33.33;;;;;;;;4943256;28;8903;-75
2022/03/24 04:16:32;;;;;;;;;39.33;34.00;;;;;;;;4938643;28;8971;-75
2022/03/24 04:18:59;;;;;;;;;33.67;32.33;;;;;;;;4928426;28;8958;-76
2022/03/24 04:21:26;;;;;;;;;32.33;29.67;;;;;;;;4939009;28;8905;-74
2022/03/24 04:23:55;;;;;;;;;31.00;24.33;;;;;;;;4940108;28;8896;-76
2022/03/24 04:26:23;;;;;;;;;28.00;25.67;;;;;;;;4950486;28;8881;-75
2022/03/24 04:28:51;;;;;;;;;35.33;34.67;;;;;;;;4946100;28;8954;-76
2022/03/24 04:31:18;;;;;;;;;27.67;27.67;;;;;;;;4938900;28;8828;-76
2022/03/24 04:33:45;;;;;;;;;39.00;38.00;;;;;;;;4951644;28;9530;-75
2022/03/24 04:36:13;;;;;;;;;34.33;34.33;;;;;;;;4948301;28;8867;-75
2022/03/24 04:38:40;;;;;;;;;43.00;34.67;;;;;;;;4942496;28;8872;-75
2022/03/24 04:41:09;;;;;;;;;29.00;25.00;;;;;;;;4942992;28;9662;-76
2022/03/24 04:43:37;;;;;;;;;30.33;20.00;;;;;;;;4941653;28;9019;-76
2022/03/24 04:46:05;;;;;;;;;43.00;40.33;;;;;;;;4961972;28;8864;-74
2022/03/24 04:48:36;;;;;;;;;36.33;33.33;;;;;;;;4962721;28;8847;-75
2022/03/24 04:51:05;;;;;;;;;32.00;31.33;;;;;;;;4943021;28;8987;-76
2022/03/24 04:53:32;;;;;;;;;45.00;38.00;;;;;;;;4942927;28;8869;-76
2022/03/24 04:55:59;;;;;;;;;32.00;30.33;;;;;;;;4942439;28;8911;-76
2022/03/24 04:58:29;;;;;;;;;41.67;39.33;;;;;;;;4936856;28;9718;-76
2022/03/24 05:00:57;;;;;;;;;39.33;33.33;;;;;;;;4949044;28;8953;-75
2022/03/24 05:03:24;;;;;;;;;39.67;36.67;;;;;;;;4958243;28;8881;-75
2022/03/24 05:05:52;;;;;;;;;28.00;27.00;;;;;;;;4970240;28;9342;-75
2022/03/24 05:08:19;;;;;;;;;42.67;38.33;;;;;;;;4959834;28;9051;-76
2022/03/24 05:10:47;;;;;;;;;39.33;33.00;;;;;;;;4947587;28;8859;-76
2022/03/24 05:13:14;;;;;;;;;32.33;27.00;;;;;;;;4965977;28;8838;-79
2022/03/24 05:15:43;;;;;;;;;45.67;40.00;;;;;;;;4947937;28;8878;-79
2022/03/24 05:18:10;;;;;;;;;49.67;42.33;;;;;;;;4952739;28;8905;-78
2022/03/24 05:20:38;;;;;;;;;35.00;32.33;;;;;;;;4949253;28;8897;-78
2022/03/24 05:23:05;;;;;;;;;48.33;41.67;;;;;;;;4957893;28;8880;-78
2022/03/24 05:25:34;;;;;;;;;42.67;37.33;;;;;;;;4936162;28;8912;-76
2022/03/24 05:28:04;;;;;;;;;46.33;38.67;;;;;;;;4938396;28;8895;-77
2022/03/24 05:30:32;;;;;;;;;55.00;44.67;;;;;;;;4943017;28;8793;-75
2022/03/24 05:33:01;;;;;;;;;53.00;42.33;;;;;;;;4940525;28;8880;-75
2022/03/24 05:35:32;;;;;;;;;39.00;36.33;;;;;;;;4935967;28;8926;-75
2022/03/24 05:38:00;;;;;;;;;48.00;41.00;;;;;;;;4937950;28;8885;-77
2022/03/24 05:40:27;;;;;;;;;48.00;43.33;;;;;;;;4931483;28;8871;-76
2022/03/24 05:42:54;;;;;;;;;39.33;36.33;;;;;;;;4934465;28;8880;-75
2022/03/24 05:45:22;;;;;;;;;43.67;39.00;;;;;;;;4931600;28;8905;-75
2022/03/24 05:47:49;;;;;;;;;38.33;34.33;;;;;;;;4932957;28;8916;-76
2022/03/24 05:50:18;;;;;;;;;38.00;33.67;;;;;;;;4940172;28;8931;-75
2022/03/24 05:52:49;;;;;;;;;42.67;38.33;;;;;;;;4936538;28;9014;-74
2022/03/24 05:55:17;;;;;;;;;37.00;33.00;;;;;;;;4937663;28;8896;-76
2022/03/24 05:57:45;;;;;;;;;38.00;35.33;;;;;;;;4936897;28;8861;-76
2022/03/24 06:00:14;;;;;;;;;40.67;35.67;;;;;;;;4937557;28;8921;-76
2022/03/24 06:02:41;;;;;;;;;45.00;40.67;;;;;;;;4936732;28;8872;-76
2022/03/24 06:05:11;;;;;;;;;34.67;32.00;;;;;;;;4928558;28;10076;-76
2022/03/24 06:07:39;;;;;;;;;47.33;40.33;;;;;;;;4936761;28;8895;-78
2022/03/24 06:10:08;;;;;;;;;37.67;37.67;;;;;;;;4935697;28;8847;-76
2022/03/24 06:12:37;;;;;;;;;32.67;32.33;;;;;;;;4937835;28;9618;-76
2022/03/24 06:15:05;;;;;;;;;42.00;39.33;;;;;;;;4936072;28;8872;-76
2022/03/24 06:17:33;;;;;;;;;41.00;37.00;;;;;;;;4938438;28;8996;-77
2022/03/24 06:20:02;;;;;;;;;44.33;36.00;;;;;;;;4939625;28;8904;-75
2022/03/24 06:22:29;;;;;;;;;48.00;35.00;;;;;;;;4960150;28;8888;-75
2022/03/24 06:24:59;;;;;;;;;43.33;40.00;;;;;;;;4939852;28;8864;-82
2022/03/24 06:27:27;;;;;;;;;47.00;40.67;;;;;;;;4937028;28;9057;-82
2022/03/24 06:29:54;;;;;;;;;43.67;37.33;;;;;;;;4921714;28;8885;-80
2022/03/24 06:32:22;;;;;;;;;37.33;37.00;;;;;;;;4922824;28;8770;-80
2022/03/24 06:34:51;;;;;;;;;40.33;38.67;;;;;;;;4940689;28;8961;-79
2022/03/24 06:37:19;;;;;;;;;37.00;35.67;;;;;;;;4920026;28;8868;-80
2022/03/24 06:39:46;;;;;;;;;47.67;40.00;;;;;;;;4927862;28;8885;-81
2022/03/24 06:42:16;;;;;;;;;47.00;40.00;;;;;;;;4937058;28;8884;-80
2022/03/24 06:44:44;;;;;;;;;48.67;41.33;;;;;;;;4925101;28;8881;-81
2022/03/24 06:47:11;;;;;;;;;53.67;43.00;;;;;;;;4931497;28;8871;-83
2022/03/24 06:49:38;;;;;;;;;54.33;47.00;;;;;;;;4952945;28;8862;-82
2022/03/24 06:52:06;;;;;;;;;58.00;47.33;;;;;;;;4953788;28;9783;-80
2022/03/24 06:54:34;;;;;;;;;48.67;44.00;;;;;;;;4952084;28;9716;-81
2022/03/24 06:57:01;;;;;;;;;36.33;33.00;;;;;;;;4944434;28;8899;-81
2022/03/24 06:59:30;;;;;;;;;57.67;45.67;;;;;;;;4945359;28;8884;-79
2022/03/24 07:01:57;;;;;;;;;51.67;47.00;;;;;;;;4937214;28;8969;-81
2022/03/24 07:04:25;;;;;;;;;20.67;16.33;;;;;;;;4953258;28;8857;-80
2022/03/24 07:06:52;;;;;;;;;56.00;47.67;;;;;;;;4976078;28;8858;-81
2022/03/24 07:09:19;;;;;;;;;45.33;41.00;;;;;;;;4977497;28;8871;-80
2022/03/24 07:11:47;;;;;;;;;54.67;45.33;;;;;;;;4958956;28;11612;-80
2022/03/24 07:14:14;;;;;;;;;53.33;45.33;;;;;;;;4959202;28;8875;-80
2022/03/24 07:16:43;;;;;;;;;52.33;43.00;;;;;;;;4952270;28;11597;-80
2022/03/24 07:19:10;;;;;;;;;45.33;39.67;;;;;;;;4947769;28;12918;-81
2022/03/24 07:21:37;;;;;;;;;53.33;44.00;;;;;;;;4963092;28;11640;-82
2022/03/24 07:24:05;;;;;;;;;57.33;47.67;;;;;;;;4943367;28;11607;-81
2022/03/24 07:26:33;;;;;;;;;55.00;46.75;;;;;;;;4953906;28;11585;-81
2022/03/24 07:29:00;;;;;;;;;50.00;44.75;;;;;;;;4955690;28;11733;-81
2022/03/24 07:31:27;;;;;;;;;56.75;46.75;;;;;;;;4946163;28;12413;-81
2022/03/24 07:33:57;;;;;;;;;58.75;48.00;;;;;;;;4954351;28;11598;-82
2022/03/24 07:36:25;;;;;;;;;48.75;43.50;;;;;;;;4958884;28;11617;-82
2022/03/24 07:38:54;;;;;;;;;54.25;44.75;;;;;;;;4960542;28;11616;-82
2022/03/24 07:41:21;;;;;;;;;48.75;44.50;;;;;;;;4944287;28;11685;-82
2022/03/24 07:43:49;;;;;;;;;48.00;43.00;;;;;;;;4928746;28;11608;-81
2022/03/24 07:46:16;;;;;;;;;58.00;46.75;;;;;;;;4935208;28;11650;-76
2022/03/24 07:48:46;;;;;;;;;58.25;49.25;;;;;;;;4938574;28;11686;-76
2022/03/24 07:51:16;;;;;;;;;43.00;38.50;;;;;;;;4940084;28;12392;-74
2022/03/24 07:54:00;;;;;;;;;44.50;40.75;;;;;;;;4934694;28;11780;-75
2022/03/24 07:56:28;;;;;;;;;23.50;23.50;;;;;;;;4939583;28;11594;-75
2022/03/24 07:58:56;;;;;;;;;43.25;33.50;;;;;;;;4925201;28;11596;-76
2022/03/24 08:01:29;;;;;;;;;48.00;40.75;;;;;;;;4945987;28;12386;-76
2022/03/24 08:03:57;;;;;;;;;45.25;38.75;;;;;;;;4935599;28;11618;-77
2022/03/24 08:06:27;;;;;;;;;53.75;42.00;;;;;;;;4946217;28;11597;-76
2022/03/24 08:08:54;;;;;;;;;51.00;41.75;;;;;;;;4984352;28;11763;-75
2022/03/24 08:11:22;;;;;;;;;42.25;39.50;;;;;;;;4942457;28;11661;-75
2022/03/24 08:13:53;;;;;;;;;58.25;45.50;;;;;;;;4940205;28;11570;-75
2022/03/24 08:16:21;;;;;;;;;55.50;43.75;;;;;;;;4946426;28;11590;-74
2022/03/24 08:18:48;;;;;;;;;51.75;44.00;;;;;;;;4947652;28;12360;-77
2022/03/24 08:21:16;;;;;;;;;59.75;48.25;;;;;;;;4922086;29;11595;-73
2022/03/24 08:23:45;;;;;;;;;56.50;45.75;;;;;;;;4954400;28;12372;-74
2022/03/24 08:26:12;;;;;;;;;54.00;45.00;;;;;;;;4934659;28;11625;-76
2022/03/24 08:28:39;;;;;;;;;55.25;43.00;;;;;;;;4941165;28;11579;-75
2022/03/24 08:31:07;;;;;;;;;53.00;42.00;;;;;;;;4943938;28;11568;-76
2022/03/24 08:33:35;;;;;;;;;55.25;44.25;;;;;;;;4940279;28;11598;-75
2022/03/24 08:36:03;;;;;;;;;52.75;44.25;;;;;;;;4940388;28;11566;-77
2022/03/24 08:38:30;;;;;;;;;54.00;45.00;;;;;;;;4944895;28;11643;-76
2022/03/24 08:40:59;;;;;;;;;51.00;43.50;;;;;;;;4941079;28;11625;-75
2022/03/24 08:43:26;;;;;;;;;53.00;45.00;;;;;;;;4941849;28;11658;-73
2022/03/24 08:45:53;;;;;;;;;57.50;47.25;;;;;;;;4931705;28;11607;-76
2022/03/24 08:48:21;;;;;;;;;56.75;46.50;;;;;;;;4954770;28;11648;-75
2022/03/24 08:50:48;;;;;;;;;57.25;43.75;;;;;;;;4956961;28;11640;-75
2022/03/24 08:53:16;;;;;;;;;54.50;46.25;;;;;;;;4952698;28;11569;-76
2022/03/24 08:55:43;;;;;;;;;36.50;31.50;;;;;;;;4941276;28;11559;-77
2022/03/24 08:58:18;;;;;;;;;53.25;45.00;;;;;;;;4961888;28;11809;-77
2022/03/24 09:00:46;;;;;;;;;57.50;46.25;;;;;;;;4961158;28;11207;-77
2022/03/24 09:03:13;;;;;;;;;49.75;42.00;;;;;;;;4957352;28;11183;-76
2022/03/24 09:05:41;;;;;;;;;54.50;43.75;;;;;;;;4939523;28;11058;-77
2022/03/24 09:08:08;;;;;;;;;53.75;44.75;;;;;;;;4992621;28;11104;-77
2022/03/24 09:10:36;;;;;;;;;51.75;40.00;;;;;;;;4962763;28;10935;-77
2022/03/24 09:13:03;;;;;;;;;48.00;41.50;;;;;;;;4955727;28;10884;-77
2022/03/24 09:15:32;;;;;;;;;49.50;40.75;;;;;;;;4962303;28;11349;-77
2022/03/24 09:18:00;;;;;;;;;48.25;39.50;;;;;;;;4961993;28;10636;-77
2022/03/24 09:20:27;;;;;;;;;52.00;42.25;;;;;;;;4947362;28;10544;-77
2022/03/24 09:22:54;;;;;;;;;48.50;41.00;;;;;;;;4943559;28;10709;-77
2022/03/24 09:25:21;;;;;;;;;50.50;40.00;;;;;;;;4946540;28;10394;-77
2022/03/24 09:27:50;;;;;;;;;51.00;38.00;;;;;;;;4954686;28;10384;-78
2022/03/24 09:30:18;;;;;;;;;39.75;34.50;;;;;;;;4937325;28;10809;-79
2022/03/24 09:32:48;;;;;;;;;50.25;39.50;;;;;;;;4976521;28;9739;-77
2022/03/24 09:35:16;;;;;;;;;46.75;38.75;;;;;;;;4927312;28;9781;-77
2022/03/24 09:37:43;;;;;;;;;47.00;40.00;;;;;;;;4945065;28;10458;-78
2022/03/24 09:40:12;;;;;;;;;48.50;38.25;;;;;;;;4943782;28;9585;-77
2022/03/24 09:42:40;;;;;;;;;55.00;45.00;;;;;;;;4945270;28;9593;-77
2022/03/24 09:45:11;;;;;;;;;50.00;42.50;;;;;;;;4931610;28;9655;-77
2022/03/24 09:47:38;;;;;;;;;55.00;45.75;;;;;;;;4947916;28;9727;-77
2022/03/24 09:50:15;;;;;;;;;50.50;39.75;;;;;;;;4959859;28;9644;-78
2022/03/24 09:52:42;;;;;;;;;51.33;42.33;;;;;;;;4949491;28;9511;-78
2022/03/24 09:55:10;;;;;;;;;51.67;42.67;;;;;;;;4950348;28;9455;-78
2022/03/24 09:57:38;;;;;;;;;51.00;42.33;;;;;;;;4951467;28;9185;-78
2022/03/24 10:00:07;;;;;;;;;52.33;43.67;;;;;;;;4961668;28;8992;-78
2022/03/24 10:02:34;;;;;;;;;55.67;45.33;;;;;;;;4949714;28;9040;-78
2022/03/24 10:05:02;;;;;;;;;53.00;44.33;;;;;;;;4961513;28;9224;-79
2022/03/24 10:07:36;;;;;;;;;54.33;43.33;;;;;;;;4995384;28;9200;-78
2022/03/24 10:10:05;;;;;;;;;60.33;48.67;;;;;;;;4943612;28;8981;-78
2022/03/24 10:12:35;;;;;;;;;46.67;38.00;;;;;;;;4960471;28;9455;-78
2022/03/24 10:15:05;;;;;;;;;48.50;40.25;;;;;;;;4960026;28;8950;-79
2022/03/24 10:17:34;;;;;;;;;52.25;42.75;;;;;;;;4960590;28;8886;-79
2022/03/24 10:20:05;;;;;;;;;50.75;40.50;;;;;;;;4950611;28;8895;-79
2022/03/24 10:22:34;;;;;;;;;50.25;42.25;;;;;;;;4955105;28;8940;-79
2022/03/24 10:25:03;;;;;;;;;51.50;42.25;;;;;;;;4955168;28;8888;-79
2022/03/24 10:27:31;;;;;;;;;40.50;34.00;;;;;;;;4956323;28;9650;-79
2022/03/24 10:30:00;;;;;;;;;33.50;29.50;;;;;;;;4953222;28;8892;-78
2022/03/24 10:32:32;;;;;;;;;37.25;32.50;;;;;;;;4938088;28;8810;-79
2022/03/24 10:35:08;;;;;;;;;36.25;31.00;;;;;;;;4953769;28;8906;-78
2022/03/24 10:37:38;;;;;;;;;27.25;25.75;;;;;;;;4957428;28;8866;-79
2022/03/24 10:40:08;;;;;;;;;43.25;34.75;;;;;;;;4948784;28;8884;-79
2022/03/24 10:42:37;;;;;;;;;35.50;33.50;;;;;;;;4953819;28;8886;-79
2022/03/24 10:45:08;;;;;;;;;33.00;29.00;;;;;;;;4947300;28;8878;-79
2022/03/24 10:47:43;;;;;;;;;31.00;28.50;;;;;;;;4947782;28;9013;-79
2022/03/24 10:50:22;;;;;;;;;34.00;29.25;;;;;;;;4945054;28;8876;-79
2022/03/24 10:52:51;;;;;;;;;37.25;32.75;;;;;;;;4982393;28;8883;-78
2022/03/24 10:55:26;;;;;;;;;32.50;30.00;;;;;;;;4942189;28;8849;-80
2022/03/24 10:57:54;;;;;;;;;35.50;30.75;;;;;;;;4928006;28;8860;-80
2022/03/24 11:00:21;;;;;;;;;39.25;30.25;;;;;;;;4945656;28;8969;-80
2022/03/24 11:02:48;;;;;;;;;35.00;30.00;;;;;;;;4947269;28;8932;-80
2022/03/24 11:05:16;;;;;;;;;34.25;31.00;;;;;;;;4945638;28;8943;-78
2022/03/24 11:07:57;;;;;;;;;40.50;33.75;;;;;;;;4972734;28;9002;-79
2022/03/24 11:10:25;;;;;;;;;31.75;30.25;;;;;;;;4940655;28;8878;-79
2022/03/24 11:12:57;;;;;;;;;25.25;25.25;;;;;;;;4944536;28;8881;-78
2022/03/24 11:15:24;;;;;;;;;35.00;30.50;;;;;;;;4946495;28;8967;-79
2022/03/24 11:17:51;;;;;;;;;31.50;30.00;;;;;;;;4928107;28;8877;-79
2022/03/24 11:20:27;;;;;;;;;32.00;30.00;;;;;;;;4944411;28;8896;-79
2022/03/24 11:22:59;;;;;;;;;32.80;31.00;;;;;;;;4944926;28;8938;-79
2022/03/24 11:25:28;;;;;;;;;32.20;27.60;;;;;;;;4948989;28;8867;-80
2022/03/24 11:27:57;;;;;;;;;30.40;30.00;;;;;;;;4941212;28;8879;-79
2022/03/24 11:30:25;;;;;;;;;33.40;30.00;;;;;;;;4947325;28;8824;-79
2022/03/24 11:32:54;;;;;;;;;37.60;28.20;;;;;;;;4940342;28;8926;-79
2022/03/24 11:35:22;;;;;;;;;33.40;30.80;;;;;;;;4946261;28;8884;-79
2022/03/24 11:37:51;;;;;;;;;30.20;29.00;;;;;;;;4928169;28;8892;-80
2022/03/24 11:40:22;;;;;;;;;28.00;26.40;;;;;;;;4947877;28;8909;-81
2022/03/24 11:42:52;;;;;;;;;29.60;26.80;;;;;;;;4943106;28;8860;-75
2022/03/24 11:45:23;;;;;;;;;29.60;26.00;;;;;;;;4935994;28;8881;-77
2022/03/24 11:47:53;;;;;;;;;34.00;29.60;;;;;;;;4953274;28;8844;-77
2022/03/24 11:50:37;;;;;;;;;27.00;25.60;;;;;;;;4942512;28;9019;-78
2022/03/24 11:53:21;;;;;;;;;21.60;21.60;;;;;;;;4932237;28;8878;-78
2022/03/24 11:56:15;;;;;;;;;29.20;27.60;;;;;;;;4944847;28;8897;-78
2022/03/24 11:59:19;;;;;;;;;29.60;28.00;;;;;;;;4948316;28;8879;-78
2022/03/24 12:01:48;;;;;;;;;24.40;21.00;;;;;;;;4943144;28;8842;-76
2022/03/24 12:04:17;;;;;;;;;26.60;25.20;;;;;;;;4926198;28;8879;-76
2022/03/24 12:06:55;;;;;;;;;28.60;26.80;;;;;;;;4977507;28;8862;-76
2022/03/24 12:09:25;;;;;;;;;31.20;28.20;;;;;;;;4963390;28;8881;-77
2022/03/24 12:12:07;;;;;;;;;32.00;27.40;;;;;;;;4941524;28;8885;-79
2022/03/24 12:14:45;;;;;;;;;30.40;28.40;;;;;;;;4946231;28;8995;-77
2022/03/24 12:17:21;;;;;;;;;26.00;26.00;;;;;;;;4948143;28;8963;-77
2022/03/24 12:19:51;;;;;;;;;32.40;29.80;;;;;;;;4935273;28;8892;-78
2022/03/24 12:22:38;;;;;;;;;27.00;26.60;;;;;;;;4941158;28;8904;-78
2022/03/24 12:25:29;;;;;;;;;29.60;25.00;;;;;;;;4944505;28;8879;-78
2022/03/24 12:28:16;;;;;;;;;29.00;27.40;;;;;;;;4937423;28;8880;-78
2022/03/24 12:30:49;;;;;;;;;30.80;29.20;;;;;;;;4941580;28;8837;-78
2022/03/24 12:33:18;;;;;;;;;20.60;17.80;;;;;;;;4943161;28;8862;-80
2022/03/24 12:35:48;;;;;;;;;30.20;27.80;;;;;;;;4948145;28;8922;-76
2022/03/24 12:38:23;;;;;;;;;33.20;23.80;;;;;;;;4951259;28;8853;-75
2022/03/24 12:41:16;;;;;;;;;33.40;28.60;;;;;;;;4937222;28;9485;-81
2022/03/24 12:43:46;;;;;;;;;28.40;26.60;;;;;;;;4938743;28;8857;-78
2022/03/24 12:46:22;;;;;;;;;31.80;24.60;;;;;;;;4954653;28;8898;-79
2022/03/24 12:48:50;;;;;;;;;25.60;21.60;;;;;;;;4947971;28;8877;-79
2022/03/24 12:51:19;;;;;;;;;22.60;21.80;;;;;;;;4955781;28;8882;-80
2022/03/24 12:53:52;;;;;;;;;30.00;28.40;;;;;;;;4952444;28;8943;-80
2022/03/24 12:56:26;;;;;;;;;26.00;26.00;;;;;;;;4961530;28;9803;-80
2022/03/24 12:58:57;;;;;;;;;30.40;26.00;;;;;;;;4963932;28;8944;-80
2022/03/24 13:01:25;;;;;;;;;26.80;23.00;;;;;;;;4947927;28;8793;-80
2022/03/24 13:03:57;;;;;;;;;29.40;26.20;;;;;;;;4944660;28;8907;-80
2022/03/24 13:06:25;;;;;;;;;26.20;25.40;;;;;;;;4969007;28;8931;-80
2022/03/24 13:09:13;;;;;;;;;27.20;26.80;;;;;;;;4978880;28;8874;-80
2022/03/24 13:11:56;;;;;;;;;22.80;22.00;;;;;;;;4949360;28;8902;-80
2022/03/24 13:14:27;;;;;;;;;31.20;28.60;;;;;;;;4935941;28;8896;-81
2022/03/24 13:17:10;;;;;;;;;28.60;25.80;;;;;;;;4961259;28;8882;-80
2022/03/24 13:19:38;;;;;;;;;32.40;28.80;;;;;;;;4955423;28;8841;-80
2022/03/24 13:22:19;;;;;;;;;27.00;25.60;;;;;;;;4946202;28;9021;-80
2022/03/24 13:25:02;;;;;;;;;30.60;28.60;;;;;;;;4929282;28;8876;-80
2022/03/24 13:27:31;;;;;;;;;29.00;24.40;;;;;;;;4944002;28;8896;-80
2022/03/24 13:30:00;;;;;;;;;27.60;24.80;;;;;;;;4946196;28;8922;-80
2022/03/24 13:32:29;;;;;;;;;21.80;21.00;;;;;;;;4934260;28;8815;-80
2022/03/24 13:35:00;;;;;;;;;33.20;27.20;;;;;;;;4947820;28;8890;-80
2022/03/24 13:37:35;;;;;;;;;27.60;23.60;;;;;;;;4944949;28;8883;-80
2022/03/24 13:40:05;;;;;;;;;32.20;30.00;;;;;;;;4949197;28;8885;-81
2022/03/24 13:42:32;;;;;;;;;28.80;25.60;;;;;;;;4960786;28;8924;-80
2022/03/24 13:45:01;;;;;;;;;34.00;29.00;;;;;;;;4947552;28;8879;-80
2022/03/24 13:47:30;;;;;;;;;26.60;25.40;;;;;;;;4959982;28;8891;-80
2022/03/24 13:49:58;;;;;;;;;30.40;28.20;;;;;;;;4957055;28;8946;-80
2022/03/24 13:52:38;;;;;;;;;28.60;27.00;;;;;;;;4962042;28;8878;-80
2022/03/24 13:55:11;;;;;;;;;27.20;27.20;;;;;;;;4958419;28;8959;-81
2022/03/24 13:57:49;;;;;;;;;30.40;26.40;;;;;;;;4956619;28;8937;-79
2022/03/24 14:00:34;;;;;;;;;27.80;27.80;;;;;;;;4959242;28;8890;-79
2022/03/24 14:03:12;;;;;;;;;24.60;22.20;;;;;;;;4937538;28;9016;-79
2022/03/24 14:05:55;;;;;;;;;29.80;27.60;;;;;;;;4959563;28;8862;-79
2022/03/24 14:08:38;;;;;;;;;29.40;29.40;;;;;;;;4953988;28;8870;-79
2022/03/24 14:11:09;;;;;;;;;28.40;25.40;;;;;;;;4954561;28;8869;-80
2022/03/24 14:13:38;;;;;;;;;30.20;28.20;;;;;;;;4960340;28;8910;-79
2022/03/24 14:16:19;;;;;;;;;23.00;23.00;;;;;;;;4957880;28;8888;-78
2022/03/24 14:19:10;;;;;;;;;27.60;27.20;;;;;;;;4948293;28;8922;-79
2022/03/24 14:21:43;;;;;;;;;30.60;30.00;;;;;;;;4950836;28;8878;-80
2022/03/24 14:24:12;;;;;;;;;18.60;18.00;;;;;;;;4954948;28;9681;-80
2022/03/24 14:26:56;;;;;;;;;24.60;23.60;;;;;;;;4958890;28;9040;-80
2022/03/24 14:29:24;;;;;;;;;22.60;21.60;;;;;;;;4955543;28;8913;-79
2022/03/24 14:32:12;;;;;;;;;20.80;20.80;;;;;;;;4945411;28;8967;-79
2022/03/24 14:34:40;;;;;;;;;30.00;26.80;;;;;;;;4941115;28;8913;-79
2022/03/24 14:37:12;;;;;;;;;23.60;21.60;;;;;;;;4951671;28;9046;-81
2022/03/24 14:39:49;;;;;;;;;23.00;22.80;;;;;;;;4956554;28;8878;-81